Time;durP1;ratioP1;P1;durP2;ratioP2;P2;SDS_P1;SDS_P2;PMS_P1;PMS_P2;Temp;Humidity;BMP_temperature;BMP_pressure;BME280_temperature;BME280_humidity;BME280_pressure;Samples;Min_cycle;Max_cycle;Signal;HPM_P1;HPM_P2
2022/05/31 00:01:09;;;;;;;5.78;3.80;;;;;;;9.86;72.92;101096.81;5043603;28;20053;-70
2022/05/31 00:03:37;;;;;;;9.45;4.28;;;;;;;10.24;71.83;101091.59;5044268;28;20049;-70
2022/05/31 00:06:04;;;;;;;8.32;3.80;;;;;;;10.39;70.37;101092.69;5048275;28;20102;-70
2022/05/31 00:08:32;;;;;;;7.45;3.97;;;;;;;10.04;70.59;101099.47;5061410;28;20094;-69
2022/05/31 00:11:00;;;;;;;7.78;4.13;;;;;;;9.44;73.95;101092.44;5057328;28;20041;-70
2022/05/31 00:13:26;;;;;;;6.05;3.88;;;;;;;9.14;75.46;101098.91;5054022;28;20489;-75
2022/05/31 00:15:53;;;;;;;7.45;5.38;;;;;;;8.87;78.73;101107.88;5046612;28;20045;-75
2022/05/31 00:18:19;;;;;;;5.95;4.55;;;;;;;9.39;76.53;101099.63;5048589;28;20122;-75
2022/05/31 00:20:47;;;;;;;8.98;4.47;;;;;;;9.77;74.14;101092.78;5060386;28;20049;-76
2022/05/31 00:23:14;;;;;;;7.55;4.50;;;;;;;9.67;74.25;101092.34;5050019;28;20475;-78
2022/05/31 00:25:40;;;;;;;8.82;5.20;;;;;;;9.12;77.82;101092.91;5059165;28;20032;-78
2022/05/31 00:28:07;;;;;;;7.47;5.07;;;;;;;8.88;79.38;101089.50;5063993;28;20048;-78
2022/05/31 00:30:34;;;;;;;12.18;4.90;;;;;;;9.13;78.31;101090.22;5043849;28;20116;-77
2022/05/31 00:33:02;;;;;;;9.38;4.70;;;;;;;9.85;74.43;101090.72;5044967;28;20047;-78
2022/05/31 00:35:32;;;;;;;10.43;4.93;;;;;;;9.24;76.41;101095.00;5060437;28;20052;-78
2022/05/31 00:38:02;;;;;;;9.93;5.70;;;;;;;8.71;79.42;101095.38;5064274;28;20105;-77
2022/05/31 00:40:30;;;;;;;9.48;5.22;;;;;;;8.51;80.70;101097.03;5060532;28;20044;-77
2022/05/31 00:42:59;;;;;;;9.98;5.35;;;;;;;8.64;80.70;101093.06;5054254;28;20098;-77
2022/05/31 00:45:32;;;;;;;8.55;5.32;;;;;;;9.22;78.14;101102.09;5052185;28;20050;-77
2022/05/31 00:47:59;;;;;;;8.35;5.03;;;;;;;9.62;76.15;101094.31;5056343;28;20118;-77
2022/05/31 00:50:30;;;;;;;7.55;4.63;;;;;;;9.81;74.91;101090.91;5051586;28;20052;-77
2022/05/31 00:53:02;;;;;;;8.65;4.68;;;;;;;9.60;74.81;101088.28;5045644;28;20531;-77
2022/05/31 00:55:32;;;;;;;9.25;4.85;;;;;;;9.44;75.49;101096.81;5045552;28;20045;-77
2022/05/31 00:58:04;;;;;;;7.60;4.20;;;;;;;9.56;74.58;101091.09;5044338;28;20052;-77
2022/05/31 01:00:30;;;;;;;9.65;4.78;;;;;;;9.86;73.19;101091.56;5047516;28;20044;-77
2022/05/31 01:02:59;;;;;;;8.43;5.10;;;;;;;10.00;72.79;101091.81;5044028;28;20075;-77
2022/05/31 01:05:26;;;;;;;4.70;3.80;;;;;;;10.10;71.87;101091.34;5045558;28;20045;-77
2022/05/31 01:07:53;;;;;;;5.70;4.07;;;;;;;9.87;71.04;101093.25;5044605;28;20045;-77
2022/05/31 01:10:21;;;;;;;5.10;4.28;;;;;;;9.97;70.56;101089.31;5049910;28;20048;-77
2022/05/31 01:12:49;;;;;;;6.05;4.07;;;;;;;9.86;71.32;101089.78;5054809;28;20086;-78
2022/05/31 01:15:19;;;;;;;6.60;4.05;;;;;;;9.79;71.18;101086.56;5058670;28;20041;-78
2022/05/31 01:17:45;;;;;;;6.25;4.13;;;;;;;9.51;71.51;101086.03;5047401;28;20048;-78
2022/05/31 01:20:16;;;;;;;7.88;5.22;;;;;;;8.57;77.31;101088.97;5058146;28;20044;-78
2022/05/31 01:22:45;;;;;;;8.02;4.55;;;;;;;9.20;75.14;101091.66;5055539;28;20501;-77
2022/05/31 01:25:32;;;;;;;11.27;4.80;;;;;;;9.27;74.81;101084.44;5063474;28;20106;-77
2022/05/31 01:28:07;;;;;;;6.00;4.40;;;;;;;9.30;73.55;101086.94;5064719;28;20056;-77
2022/05/31 01:30:43;;;;;;;6.18;4.50;;;;;;;8.63;74.63;101083.50;5058632;28;20044;-78
2022/05/31 01:33:15;;;;;;;6.13;4.75;;;;;;;8.42;78.04;101087.78;5062618;28;20714;-77
2022/05/31 01:35:45;;;;;;;8.90;4.88;;;;;;;8.65;77.55;101079.91;5064282;28;20049;-77
2022/05/31 01:38:16;;;;;;;6.95;4.53;;;;;;;8.87;75.57;101077.31;5061013;28;20440;-71
2022/05/31 01:40:48;;;;;;;5.72;4.45;;;;;;;8.89;74.44;101085.97;5050189;28;20048;-71
2022/05/31 01:43:15;;;;;;;6.82;4.30;;;;;;;8.93;74.37;101086.69;5051894;28;20041;-71
2022/05/31 01:45:50;;;;;;;8.23;5.20;;;;;;;8.88;74.44;101088.63;5050448;28;20082;-72
2022/05/31 01:48:17;;;;;;;8.55;4.45;;;;;;;9.04;73.65;101089.75;5060622;28;20040;-72
2022/05/31 01:50:46;;;;;;;5.22;4.50;;;;;;;9.22;73.04;101084.63;5053330;28;20040;-72
2022/05/31 01:53:14;;;;;;;7.63;4.53;;;;;;;9.07;73.54;101087.00;5053166;28;20098;-72
2022/05/31 01:55:43;;;;;;;9.30;5.15;;;;;;;9.01;74.56;101085.50;5047804;28;20459;-72
2022/05/31 01:58:17;;;;;;;7.18;5.38;;;;;;;9.14;74.29;101085.84;5064039;28;20051;-72
2022/05/31 02:00:44;;;;;;;9.95;5.50;;;;;;;9.08;74.36;101089.56;5066712;28;20045;-72
2022/05/31 02:03:13;;;;;;;6.85;4.40;;;;;;;8.72;74.68;101086.59;5067691;28;20550;-72
2022/05/31 02:05:45;;;;;;;7.53;4.80;;;;;;;8.67;75.11;101075.50;5065254;28;20045;-72
2022/05/31 02:08:11;;;;;;;;;;;;;;;8.57;75.32;101076.75;5065740;28;20044;-72
2022/05/31 02:10:39;;;;;;;7.93;4.55;;;;;;;8.28;76.33;101069.09;5066872;28;20285;-72
2022/05/31 02:13:06;;;;;;;7.68;4.93;;;;;;;8.10;77.23;101085.44;5056018;28;20139;-71
2022/05/31 02:15:33;;;;;;;8.45;4.20;;;;;;;7.97;76.78;101081.59;5046165;28;20555;-71
2022/05/31 02:17:59;;;;;;;7.43;5.28;;;;;;;8.11;77.87;101085.41;5053942;28;20122;-71
2022/05/31 02:20:26;;;;;;;8.38;5.05;;;;;;;8.50;76.50;101079.66;5053152;28;20045;-71
2022/05/31 02:22:53;;;;;;;8.07;5.18;;;;;;;8.48;76.11;101081.47;5054193;28;20090;-71
2022/05/31 02:25:20;;;;;;;7.13;5.00;;;;;;;8.64;75.18;101093.91;5049038;28;20045;-72
2022/05/31 02:27:46;;;;;;;7.97;5.05;;;;;;;8.69;74.43;101088.50;5048388;28;20045;-71
2022/05/31 02:30:13;;;;;;;10.70;5.03;;;;;;;8.26;74.94;101099.69;5054690;28;20041;-71
2022/05/31 02:32:40;;;;;;;7.70;5.25;;;;;;;8.23;75.53;101091.97;5049928;28;20048;-71
2022/05/31 02:35:09;;;;;;;7.68;4.63;;;;;;;8.20;76.30;101098.13;5050056;28;20080;-71
2022/05/31 02:37:36;;;;;;;8.93;5.78;;;;;;;7.93;76.97;101106.09;5046072;28;20559;-72
2022/05/31 02:40:06;;;;;;;7.65;5.10;;;;;;;7.92;76.13;101107.00;5051453;28;20045;-72
2022/05/31 02:42:32;;;;;;;9.60;4.95;;;;;;;8.26;75.30;101099.69;5058235;28;20045;-72
2022/05/31 02:44:59;;;;;;;7.60;5.28;;;;;;;8.27;75.17;101096.16;5066372;28;20094;-72
2022/05/31 02:47:26;;;;;;;8.98;5.10;;;;;;;8.30;75.75;101110.00;5065111;28;20048;-72
2022/05/31 02:49:52;;;;;;;13.07;5.65;;;;;;;8.46;75.03;101097.19;5055556;28;20490;-72
2022/05/31 02:52:19;;;;;;;7.95;5.60;;;;;;;8.35;75.27;101108.97;5046592;28;20417;-71
2022/05/31 02:54:45;;;;;;;7.53;4.88;;;;;;;7.87;75.73;101107.16;5046532;28;20394;-71
2022/05/31 02:57:12;;;;;;;7.00;5.45;;;;;;;7.73;77.38;101107.63;5045257;28;20472;-71
2022/05/31 02:59:39;;;;;;;6.90;5.47;;;;;;;7.65;78.03;101106.22;5045740;28;20067;-71
2022/05/31 03:02:05;;;;;;;9.20;5.40;;;;;;;7.87;77.01;101114.97;5047025;28;20045;-71
2022/05/31 03:04:32;;;;;;;9.18;5.88;;;;;;;8.15;76.17;101113.13;5056743;28;20044;-71
2022/05/31 03:07:01;;;;;;;8.63;5.68;;;;;;;8.15;75.67;101114.88;5065961;28;20467;-71
2022/05/31 03:09:28;;;;;;;7.55;5.20;;;;;;;8.02;75.29;101109.22;5053956;28;20111;-71
2022/05/31 03:11:59;;;;;;;7.40;5.15;;;;;;;7.87;75.97;101106.31;5057334;28;20091;-71
2022/05/31 03:14:30;;;;;;;12.13;6.05;;;;;;;7.91;76.13;101108.75;5060187;28;20040;-71
2022/05/31 03:17:02;;;;;;;9.50;5.45;;;;;;;7.79;75.89;101110.06;5050250;28;20087;-71
2022/05/31 03:19:34;;;;;;;7.37;5.20;;;;;;;7.95;75.93;101105.13;5063513;28;20535;-71
2022/05/31 03:22:03;;;;;;;7.50;5.47;;;;;;;8.22;75.00;101095.47;5046993;28;20136;-71
2022/05/31 03:24:35;;;;;;;7.93;5.57;;;;;;;8.18;74.93;101105.19;5047221;28;20322;-71
2022/05/31 03:27:06;;;;;;;7.30;5.35;;;;;;;7.95;75.57;101115.56;5064763;28;20505;-71
2022/05/31 03:29:36;;;;;;;8.10;5.38;;;;;;;7.81;76.61;101103.00;5062521;28;20076;-71
2022/05/31 03:32:03;;;;;;;10.68;6.05;;;;;;;7.77;77.90;101108.38;5055817;28;20048;-71
2022/05/31 03:34:29;;;;;;;12.82;6.32;;;;;;;7.50;79.97;101102.31;5066172;28;20045;-71
2022/05/31 03:36:55;;;;;;;11.15;6.55;;;;;;;7.66;79.73;101111.34;5064138;28;20044;-71
2022/05/31 03:39:22;;;;;;;9.00;6.07;;;;;;;8.10;78.13;101101.13;5065004;28;20045;-71
2022/05/31 03:41:48;;;;;;;9.50;6.47;;;;;;;8.23;77.33;101103.25;5062508;28;20052;-71
2022/05/31 03:44:14;;;;;;;9.13;5.68;;;;;;;8.17;76.75;101106.06;5043798;28;20505;-71
2022/05/31 03:46:42;;;;;;;8.88;5.57;;;;;;;8.06;76.98;101107.34;5045897;28;20623;-71
2022/05/31 03:49:09;;;;;;;9.55;5.70;;;;;;;7.87;78.65;101103.72;5055802;28;20052;-71
2022/05/31 03:51:36;;;;;;;10.00;5.88;;;;;;;8.19;78.16;101100.81;5046634;28;20052;-71
2022/05/31 03:54:02;;;;;;;8.52;5.85;;;;;;;8.43;77.43;101086.88;5045722;28;20135;-71
2022/05/31 03:56:28;;;;;;;7.72;5.55;;;;;;;8.39;78.02;101100.94;5046871;28;20045;-71
2022/05/31 03:58:55;;;;;;;8.32;5.55;;;;;;;8.48;77.70;101107.59;5048890;28;20048;-71
2022/05/31 04:01:21;;;;;;;10.75;6.22;;;;;;;8.53;78.22;101105.69;5065915;28;20040;-71
2022/05/31 04:03:49;;;;;;;11.18;5.85;;;;;;;9.04;76.38;101103.69;5064914;28;20074;-72
2022/05/31 04:06:15;;;;;;;8.77;5.50;;;;;;;8.99;76.61;101102.13;5064106;28;20040;-71
2022/05/31 04:08:41;;;;;;;7.63;5.53;;;;;;;9.00;77.27;101102.09;5065714;28;20056;-71
2022/05/31 04:11:08;;;;;;;11.80;5.85;;;;;;;9.21;76.74;101108.22;5064204;28;20137;-71
2022/05/31 04:13:34;;;;;;;11.23;6.28;;;;;;;9.46;76.02;101101.06;5063774;28;20044;-71
2022/05/31 04:16:06;;;;;;;12.55;6.28;;;;;;;9.34;76.56;101108.59;5064294;28;20044;-71
2022/05/31 04:18:33;;;;;;;11.50;6.07;;;;;;;9.37;76.84;101098.84;5055347;28;20102;-71
2022/05/31 04:21:02;;;;;;;9.18;6.50;;;;;;;9.33;76.81;101104.28;5056351;28;20044;-71
2022/05/31 04:26:13;;;;;;;10.95;6.13;;;;;;;10.34;73.13;101101.69;5045279;28;20076;-71
2022/05/31 04:28:39;;;;;;;7.70;5.55;;;;;;;10.68;70.58;101096.59;5048086;28;20041;-71
2022/05/31 04:31:06;;;;;;;11.88;5.82;;;;;;;10.52;71.39;101098.22;5044671;28;20308;-71
2022/05/31 04:33:32;;;;;;;7.90;5.53;;;;;;;10.81;70.14;101092.47;5047960;28;20045;-71
2022/05/31 04:36:00;;;;;;;8.93;5.70;;;;;;;10.97;69.66;101097.88;5045877;28;20045;-70
2022/05/31 04:38:27;;;;;;;8.55;5.28;;;;;;;10.70;70.75;101097.38;5044373;28;20040;-71
2022/05/31 04:40:54;;;;;;;11.60;6.03;;;;;;;10.13;72.96;101100.81;5044204;28;20045;-71
2022/05/31 04:43:21;;;;;;;8.68;5.40;;;;;;;9.57;75.75;101106.72;5043818;28;20045;-71
2022/05/31 04:45:47;;;;;;;10.45;5.53;;;;;;;9.48;76.34;101114.13;5043214;28;20049;-71
2022/05/31 04:48:14;;;;;;;10.45;5.90;;;;;;;9.23;77.45;101112.50;5054843;28;20044;-71
2022/05/31 04:50:41;;;;;;;11.05;6.35;;;;;;;9.28;77.36;101114.91;5053943;28;20095;-71
2022/05/31 04:53:07;;;;;;;11.25;5.45;;;;;;;9.45;76.32;101109.88;5063518;28;20475;-71
2022/05/31 04:55:35;;;;;;;10.40;5.50;;;;;;;9.33;76.30;101104.28;5061551;28;20048;-71
2022/05/31 04:58:01;;;;;;;9.77;5.47;;;;;;;9.44;75.66;101105.53;5064714;28;20537;-71
2022/05/31 05:00:27;;;;;;;7.47;5.75;;;;;;;9.20;76.79;101109.97;5062718;28;20454;-71
2022/05/31 05:02:54;;;;;;;9.07;5.75;;;;;;;10.10;74.40;101112.28;5060038;28;20481;-73
2022/05/31 05:05:20;;;;;;;8.85;5.22;;;;;;;10.26;72.32;101102.03;5052856;28;20197;-72
2022/05/31 05:07:47;;;;;;;7.00;4.20;;;;;;;10.75;70.90;101098.84;5055943;28;20424;-73
2022/05/31 05:10:13;;;;;;;8.35;4.95;;;;;;;10.76;70.53;101102.34;5052923;28;20489;-72
2022/05/31 05:12:41;;;;;;;8.52;5.20;;;;;;;11.15;69.15;101099.59;5060238;28;20049;-72
2022/05/31 05:15:08;;;;;;;9.23;4.93;;;;;;;11.28;68.56;101092.81;5054778;28;20507;-71
2022/05/31 05:17:34;;;;;;;8.43;4.47;;;;;;;11.63;68.12;101097.19;5061907;28;20105;-72
2022/05/31 05:20:01;;;;;;;6.20;4.65;;;;;;;11.23;68.17;101093.03;5052689;28;20041;-72
2022/05/31 05:22:29;;;;;;;10.73;5.03;;;;;;;11.57;67.64;101101.88;5054732;28;20094;-71
2022/05/31 05:24:55;;;;;;;9.30;4.47;;;;;;;11.52;68.42;101101.28;5063325;28;20513;-71
2022/05/31 05:27:22;;;;;;;10.82;4.43;;;;;;;11.41;68.57;101091.31;5048117;28;20033;-71
2022/05/31 05:32:34;;;;;;;7.15;4.60;;;;;;;12.90;65.90;101089.53;5063762;28;20129;-72
2022/05/31 05:35:00;;;;;;;6.15;4.68;;;;;;;13.33;62.35;101095.91;5067577;28;20165;-71
2022/05/31 05:37:26;;;;;;;6.63;4.40;;;;;;;13.32;64.21;101088.94;5063869;28;20049;-71
2022/05/31 05:39:53;;;;;;;5.90;4.53;;;;;;;13.16;63.49;101091.59;5045490;28;20574;-71
2022/05/31 05:42:19;;;;;;;8.57;4.50;;;;;;;12.44;65.19;101093.84;5048707;28;20139;-71
2022/05/31 05:44:45;;;;;;;9.30;4.20;;;;;;;13.18;65.29;101093.28;5048165;28;20102;-71
2022/05/31 05:47:15;;;;;;;8.80;4.78;;;;;;;13.45;64.98;101092.53;5046984;28;20409;-71
2022/05/31 05:49:42;;;;;;;8.30;4.93;;;;;;;12.33;67.89;101097.97;5053381;28;20045;-71
2022/05/31 05:52:12;;;;;;;15.98;4.80;;;;;;;12.25;68.50;101103.63;5049216;28;20170;-71
2022/05/31 05:54:38;;;;;;;9.13;4.85;;;;;;;11.92;69.87;101092.25;5064225;28;20507;-71
2022/05/31 05:57:05;;;;;;;6.68;4.03;;;;;;;11.43;70.56;101101.72;5067588;28;20094;-71
2022/05/31 05:59:31;;;;;;;13.32;5.18;;;;;;;12.08;70.37;101111.56;5067424;28;20473;-71
2022/05/31 06:02:02;;;;;;;8.65;4.93;;;;;;;12.30;68.59;101098.16;5057103;28;20048;-71
2022/05/31 06:04:34;;;;;;;7.30;4.30;;;;;;;12.96;66.60;101094.47;5047236;28;20041;-71
2022/05/31 06:07:10;;;;;;;5.85;4.07;;;;;;;13.87;64.84;101093.59;5045636;28;20099;-71
2022/05/31 06:09:38;;;;;;;6.80;4.32;;;;;;;13.98;63.28;101099.09;5045781;28;20045;-71
2022/05/31 06:12:08;;;;;;;11.07;4.95;;;;;;;14.44;62.69;101099.81;5046769;28;20040;-71
2022/05/31 06:14:39;;;;;;;10.43;4.68;;;;;;;14.25;62.97;101100.06;5071883;28;20078;-71
2022/05/31 06:17:12;;;;;;;10.02;5.30;;;;;;;13.60;63.74;101096.94;5073566;28;20090;-71
2022/05/31 06:19:41;;;;;;;7.35;4.72;;;;;;;14.18;62.73;101097.88;5049189;28;20063;-71
2022/05/31 06:22:09;;;;;;;7.93;4.60;;;;;;;13.74;63.52;101108.47;5047143;28;20045;-71
2022/05/31 06:24:38;;;;;;;9.50;4.47;;;;;;;13.22;65.01;101110.63;5046221;28;20057;-70
2022/05/31 06:27:06;;;;;;;10.27;4.78;;;;;;;13.00;67.05;101110.94;5044687;28;20067;-70
2022/05/31 06:29:32;;;;;;;8.13;5.18;;;;;;;13.75;65.24;101105.72;5051535;28;20070;-71
2022/05/31 06:31:59;;;;;;;6.55;4.88;;;;;;;13.33;66.23;101114.34;5063774;28;20056;-71
2022/05/31 06:34:25;;;;;;;10.35;5.53;;;;;;;13.39;67.07;101106.09;5048615;28;20083;-71
2022/05/31 06:37:03;;;;;;;10.18;4.90;;;;;;;13.95;65.26;101108.03;5057968;28;20044;-71
2022/05/31 06:39:30;;;;;;;10.35;5.55;;;;;;;14.01;65.02;101104.16;5049113;28;20134;-71
2022/05/31 06:41:56;;;;;;;9.95;5.18;;;;;;;14.04;64.49;101106.66;5059202;28;20052;-71
2022/05/31 06:44:23;;;;;;;9.90;5.18;;;;;;;14.16;66.51;101097.97;5066847;28;20052;-71
2022/05/31 06:46:49;;;;;;;8.93;4.57;;;;;;;14.10;65.15;101101.00;5067036;28;20044;-71
2022/05/31 06:49:15;;;;;;;8.68;5.22;;;;;;;14.11;64.44;101098.28;5056697;28;20063;-71
2022/05/31 06:57:16;;;;;;;8.00;4.38;;;;;;;15.32;62.14;101096.78;5049591;28;20516;-70
2022/05/31 06:59:42;;;;;;;12.68;4.32;;;;;;;15.88;58.82;101098.31;5047605;28;20072;-70
2022/05/31 07:02:10;;;;;;;8.73;4.13;;;;;;;16.51;57.37;101087.72;5065100;28;20037;-76
2022/05/31 07:04:37;;;;;;;8.55;4.78;;;;;;;15.80;58.35;101092.69;5067177;28;20055;-78
2022/05/31 07:07:04;;;;;;;7.95;3.80;;;;;;;16.15;58.19;101095.59;5063122;28;20130;-79
2022/05/31 07:09:33;;;;;;;6.50;4.15;;;;;;;16.96;54.00;101084.44;5047851;28;20098;-77
2022/05/31 07:11:59;;;;;;;9.45;4.07;;;;;;;16.22;55.31;101087.09;5046371;28;20155;-77
2022/05/31 07:14:26;;;;;;;8.25;3.83;;;;;;;16.54;52.81;101093.63;5044798;28;20041;-77
2022/05/31 07:16:53;;;;;;;6.68;4.05;;;;;;;16.98;51.95;101082.53;5050221;28;20072;-77
2022/05/31 07:19:20;;;;;;;7.78;3.33;;;;;;;16.23;53.85;101094.06;5055332;28;20098;-77
2022/05/31 07:21:46;;;;;;;7.82;4.53;;;;;;;15.36;56.42;101083.28;5044319;28;20048;-76
2022/05/31 07:24:12;;;;;;;7.90;3.67;;;;;;;16.06;55.76;101082.03;5045268;28;20045;-76
2022/05/31 07:26:40;;;;;;;7.95;3.58;;;;;;;16.57;52.45;101075.84;5048206;28;20045;-77
2022/05/31 07:29:09;;;;;;;9.10;3.55;;;;;;;15.86;54.73;101084.34;5052442;28;20181;-77
2022/05/31 07:31:36;;;;;;;7.10;3.55;;;;;;;14.98;56.77;101084.91;5064076;28;20456;-77
2022/05/31 07:34:02;;;;;;;8.52;3.67;;;;;;;15.92;58.67;101083.94;5053024;28;20033;-75
2022/05/31 07:36:29;;;;;;;7.93;3.30;;;;;;;17.19;51.15;101082.75;5044528;28;20386;-76
2022/05/31 07:38:55;;;;;;;8.52;3.42;;;;;;;17.40;50.77;101080.34;5056643;28;20114;-77
2022/05/31 07:41:21;;;;;;;7.65;3.28;;;;;;;17.39;51.21;101082.13;5059600;28;20048;-77
2022/05/31 07:43:49;;;;;;;6.53;2.95;;;;;;;17.07;52.21;101081.03;5055882;28;20040;-78
2022/05/31 07:46:16;;;;;;;6.75;2.85;;;;;;;16.72;50.30;101077.41;5066236;28;20036;-80
2022/05/31 07:48:42;;;;;;;6.00;2.50;;;;;;;17.68;46.91;101073.81;5064249;28;20093;-78
2022/05/31 07:51:09;;;;;;;5.63;2.53;;;;;;;18.27;49.77;101069.19;5058557;28;20078;-78
2022/05/31 07:53:35;;;;;;;8.63;2.83;;;;;;;19.21;45.46;101072.22;5059957;28;20053;-80
2022/05/31 07:56:06;;;;;;;8.05;2.65;;;;;;;18.61;48.75;101062.09;5052843;28;20045;-80
2022/05/31 07:58:33;;;;;;;6.72;2.65;;;;;;;19.73;50.45;101064.25;5064878;28;20041;-79
2022/05/31 08:01:01;;;;;;;7.60;2.63;;;;;;;20.18;43.90;101067.47;5057912;28;20055;-78
2022/05/31 08:03:27;;;;;;;5.28;2.35;;;;;;;21.23;41.35;101063.47;5049788;28;20103;-78
2022/05/31 08:05:54;;;;;;;6.22;2.85;;;;;;;21.15;40.74;101066.81;5043110;28;20421;-79
2022/05/31 08:08:20;;;;;;;4.55;2.30;;;;;;;20.16;41.65;101066.75;5057411;28;20037;-79
2022/05/31 08:10:47;;;;;;;5.70;2.03;;;;;;;20.55;44.61;101062.44;5060273;28;20106;-79
2022/05/31 08:13:13;;;;;;;6.60;2.33;;;;;;;19.43;40.67;101064.19;5057893;28;20509;-80
2022/05/31 08:15:40;;;;;;;5.20;2.60;;;;;;;20.03;40.01;101054.66;5064257;28;20052;-79
2022/05/31 08:18:08;;;;;;;6.95;2.10;;;;;;;21.03;46.09;101046.56;5065457;28;20094;-80
2022/05/31 08:20:34;;;;;;;5.72;2.03;;;;;;;19.92;41.01;101058.22;5062539;28;20052;-80
2022/05/31 08:23:02;;;;;;;6.22;2.40;;;;;;;19.80;43.01;101054.81;5057056;28;20037;-81
2022/05/31 08:25:28;;;;;;;5.95;2.85;;;;;;;19.33;42.64;101056.09;5053452;28;20048;-79
2022/05/31 08:27:55;;;;;;;5.68;2.60;;;;;;;20.28;43.95;101039.09;5063203;28;20098;-79
2022/05/31 08:30:21;;;;;;;7.45;2.10;;;;;;;21.11;42.60;101037.91;5063617;28;20512;-78
2022/05/31 08:32:48;;;;;;;6.00;2.40;;;;;;;21.68;39.49;101045.03;5060393;28;20389;-80
2022/05/31 08:35:15;;;;;;;6.90;2.50;;;;;;;21.90;39.53;101042.03;5058935;28;20079;-79
2022/05/31 08:37:42;;;;;;;8.40;2.53;;;;;;;21.89;37.76;101037.69;5062430;28;20475;-79
2022/05/31 08:40:09;;;;;;;4.47;2.58;;;;;;;19.83;41.77;101035.91;5045553;28;20497;-77
2022/05/31 08:42:48;;;;;;;7.43;3.00;;;;;;;20.51;42.88;101029.06;5058206;28;20621;-79
2022/05/31 08:45:27;;;;;;;4.15;2.30;;;;;;;20.23;40.13;101030.63;5038749;28;20047;-80
2022/05/31 08:48:03;;;;;;;6.43;2.55;;;;;;;20.75;40.61;101020.72;5049176;28;20691;-78
2022/05/31 08:53:26;;;;;;;7.28;2.47;;;;;;;21.14;40.68;101027.81;5062100;28;20669;-78
2022/05/31 08:58:47;;;;;;;5.20;1.92;;;;;;;21.46;37.47;101016.84;5067516;28;20062;-69
2022/05/31 09:01:18;;;;;;;6.47;1.75;;;;;;;22.23;34.89;101014.84;5069317;28;20554;-67
2022/05/31 09:03:48;;;;;;;3.97;1.65;;;;;;;21.97;35.35;101008.47;5068106;28;20045;-67
2022/05/31 09:06:21;;;;;;;9.80;2.00;;;;;;;22.21;33.68;101005.25;5067881;28;20040;-68
2022/05/31 09:09:04;;;;;;;3.72;1.88;;;;;;;21.25;35.49;101009.00;5066681;28;20041;-67
2022/05/31 09:11:35;;;;;;;5.60;2.28;;;;;;;20.98;38.39;101000.00;5064582;28;20040;-67
2022/05/31 09:14:08;;;;;;;4.43;2.00;;;;;;;21.74;37.73;100993.75;5067406;28;20044;-67
2022/05/31 09:16:44;;;;;;;5.65;2.40;;;;;;;21.48;38.71;101000.69;5065150;28;20043;-67
2022/05/31 09:19:15;;;;;;;6.95;2.50;;;;;;;21.20;39.42;100995.25;5051823;28;20111;-67
2022/05/31 09:21:46;;;;;;;6.00;2.17;;;;;;;21.90;38.88;100999.34;5055977;28;20107;-67
2022/05/31 09:24:14;;;;;;;7.13;2.00;;;;;;;22.25;35.61;100999.47;5056284;28;20122;-67
2022/05/31 09:27:00;;;;;;;8.40;2.58;;;;;;;21.77;37.32;100996.13;5059165;28;20095;-67
2022/05/31 09:29:34;;;;;;;7.20;2.75;;;;;;;21.63;37.79;101001.91;5050604;28;20564;-67
2022/05/31 09:32:10;;;;;;;7.80;2.47;;;;;;;22.20;38.87;100999.09;5056453;28;20045;-67
2022/05/31 09:34:52;;;;;;;6.97;2.40;;;;;;;21.94;36.92;100991.91;5067126;28;20455;-67
2022/05/31 09:37:35;;;;;;;5.68;2.08;;;;;;;21.08;40.61;100985.69;5051942;28;20052;-67
2022/05/31 09:40:19;;;;;;;5.75;2.38;;;;;;;21.43;39.16;100987.78;5048581;28;20045;-67
2022/05/31 09:43:02;;;;;;;8.30;2.50;;;;;;;21.25;39.90;100976.13;5049739;28;20075;-68
2022/05/31 09:45:32;;;;;;;6.65;2.50;;;;;;;20.81;40.75;100975.69;5055552;28;20502;-67
2022/05/31 09:48:01;;;;;;;6.22;2.80;;;;;;;21.67;39.97;100976.63;5062157;28;20041;-67
2022/05/31 09:50:29;;;;;;;6.35;2.40;;;;;;;20.91;39.60;100980.22;5055949;28;20049;-67
2022/05/31 09:52:57;;;;;;;5.85;2.60;;;;;;;21.85;41.47;100970.41;5046084;28;20071;-67
2022/05/31 09:58:21;;;;;;;;;;;;;;;21.85;35.59;100964.22;5057320;28;20404;-67
2022/05/31 10:01:00;;;;;;;3.95;1.80;;;;;;;22.59;35.56;100956.97;5064060;28;20377;-67
2022/05/31 10:03:34;;;;;;;4.68;2.00;;;;;;;21.92;38.08;100960.00;5055155;28;20090;-67
2022/05/31 10:06:07;;;;;;;8.98;2.10;;;;;;;22.28;36.18;100955.63;5067130;28;20048;-66
2022/05/31 10:08:35;;;;;;;4.53;1.80;;;;;;;22.95;34.50;100949.81;5046690;28;20071;-66
2022/05/31 10:11:05;;;;;;;3.35;2.05;;;;;;;22.41;34.86;100955.25;5047679;28;20094;-66
2022/05/31 10:13:38;;;;;;;3.70;1.85;;;;;;;21.20;36.83;100957.06;5046787;28;20049;-66
2022/05/31 10:16:19;;;;;;;3.00;1.85;;;;;;;21.18;36.44;100951.88;5050077;28;20049;-66
2022/05/31 10:18:49;;;;;;;7.13;2.20;;;;;;;22.64;36.50;100946.66;5060185;28;20056;-66
2022/05/31 10:21:28;;;;;;;6.32;2.22;;;;;;;24.32;39.67;100936.47;5058956;28;20052;-66
2022/05/31 10:23:59;;;;;;;8.80;2.10;;;;;;;24.73;37.28;100932.88;5046854;28;20052;-66
2022/05/31 10:26:30;;;;;;;3.05;1.77;;;;;;;25.04;29.08;100933.09;5045782;28;20041;-66
2022/05/31 10:29:00;;;;;;;5.57;2.28;;;;;;;22.93;36.70;100935.78;5044650;28;20390;-66
2022/05/31 10:31:33;;;;;;;3.78;1.95;;;;;;;22.00;34.06;100927.22;5047518;28;20051;-66
2022/05/31 10:34:02;;;;;;;3.97;2.03;;;;;;;22.99;34.42;100928.94;5056289;28;20048;-66
2022/05/31 10:36:30;;;;;;;5.32;2.10;;;;;;;23.33;32.44;100927.22;5056944;28;20094;-67
2022/05/31 10:39:08;;;;;;;4.07;2.08;;;;;;;23.26;34.28;100937.72;5055221;28;20197;-66
2022/05/31 10:41:36;;;;;;;6.97;2.65;;;;;;;23.54;31.06;100924.22;5062066;28;20131;-66
2022/05/31 10:44:09;;;;;;;4.93;2.10;;;;;;;23.32;32.24;100925.53;5053623;28;20130;-66
2022/05/31 10:46:38;;;;;;;3.95;1.95;;;;;;;22.55;33.00;100925.34;5054895;28;20040;-66
2022/05/31 10:49:12;;;;;;;5.93;1.88;;;;;;;22.72;33.58;100917.38;5060563;28;20561;-66
2022/05/31 10:51:45;;;;;;;3.35;1.80;;;;;;;21.67;34.45;100912.59;5047776;28;20098;-66
2022/05/31 10:54:38;;;;;;;5.43;2.25;;;;;;;23.09;31.72;100909.16;5046805;28;20048;-66
2022/05/31 10:57:17;;;;;;;4.07;1.90;;;;;;;23.53;33.66;100901.13;5044064;28;20045;-66
2022/05/31 10:59:47;;;;;;;5.30;1.90;;;;;;;24.19;34.49;100898.59;5045878;28;20100;-66
2022/05/31 11:02:49;;;;;;;7.07;2.47;;;;;;;24.77;32.09;100895.84;5044417;28;20053;-67
2022/05/31 11:05:19;;;;;;;4.40;2.20;;;;;;;24.93;29.02;100885.16;5047716;28;20037;-66
2022/05/31 11:13:55;;;;;;;3.17;1.77;;;;;;;24.52;31.04;100883.41;5012455;28;20049;-66
2022/05/31 11:16:32;;;;;;;3.63;2.10;;;;;;;24.89;29.36;100881.13;5046735;28;20117;-66
2022/05/31 11:19:25;;;;;;;4.90;1.80;;;;;;;24.65;30.63;100878.41;5050606;28;20903;-66
2022/05/31 11:22:10;;;;;;;4.07;1.90;;;;;;;24.64;29.69;100866.00;5056230;28;20044;-66
2022/05/31 11:24:56;;;;;;;4.60;1.92;;;;;;;23.51;33.58;100889.72;5065383;28;20079;-66
2022/05/31 11:27:36;;;;;;;5.95;2.13;;;;;;;22.17;32.45;100881.84;5061255;28;20099;-66
2022/05/31 11:30:17;;;;;;;6.80;2.20;;;;;;;22.09;33.37;100879.13;5043921;28;20049;-66
2022/05/31 11:32:57;;;;;;;4.70;2.10;;;;;;;22.71;32.25;100875.59;5054049;28;20067;-66
2022/05/31 11:35:39;;;;;;;5.20;2.15;;;;;;;23.33;32.69;100883.56;5058015;28;20045;-66
2022/05/31 11:38:12;;;;;;;6.60;2.10;;;;;;;22.75;31.57;100878.81;5054180;28;20045;-66
2022/05/31 11:40:59;;;;;;;5.93;2.13;;;;;;;22.27;33.51;100881.81;5045018;28;20574;-66
2022/05/31 11:44:13;;;;;;;6.30;2.40;;;;;;;22.35;32.15;100875.72;5058865;28;20531;-66
2022/05/31 11:46:43;;;;;;;4.43;2.10;;;;;;;22.95;34.97;100869.59;5064513;28;20445;-66
2022/05/31 11:49:16;;;;;;;8.80;2.25;;;;;;;22.77;31.69;100871.44;5055437;28;20053;-67
2022/05/31 11:51:56;;;;;;;7.97;2.17;;;;;;;23.34;33.13;100866.53;5046657;28;20134;-66
2022/05/31 11:55:25;;;;;;;3.45;1.83;;;;;;;23.19;30.85;100872.47;5045293;28;20045;-66
2022/05/31 11:57:55;;;;;;;5.70;2.20;;;;;;;23.43;31.37;100858.41;5045286;28;20048;-66
2022/05/31 12:00:23;;;;;;;4.97;2.20;;;;;;;23.48;30.38;100856.09;5044804;28;20037;-66
2022/05/31 12:02:54;;;;;;;2.97;1.92;;;;;;;23.76;30.07;100854.88;5060272;28;20041;-66
2022/05/31 12:05:25;;;;;;;4.55;1.90;;;;;;;23.72;31.36;100858.88;5062746;28;20455;-66